createdAt,value
2018-04-14T00:01:18.515Z,13.52
2018-04-14T00:03:46.883Z,13.48
2018-04-14T00:06:15.272Z,13.45
2018-04-14T00:08:43.939Z,13.44
2018-04-14T00:11:12.340Z,13.39
2018-04-14T00:13:41.662Z,13.35
2018-04-14T00:16:10.178Z,13.28
2018-04-14T00:18:38.863Z,13.24
2018-04-14T00:21:07.376Z,13.22
2018-04-14T00:23:35.840Z,13.25
2018-04-14T00:26:04.464Z,13.28
2018-04-14T00:28:32.901Z,13.31
2018-04-14T00:31:01.823Z,13.33
2018-04-14T00:33:30.529Z,13.34
2018-04-14T00:35:59.982Z,13.36
2018-04-14T00:38:28.406Z,13.33
2018-04-14T00:40:57.076Z,13.32
2018-04-14T00:43:25.475Z,13.30
2018-04-14T00:45:54.165Z,13.31
2018-04-14T00:48:23.236Z,13.32
2018-04-14T00:50:52.587Z,13.32
2018-04-14T00:53:34.417Z,13.28
2018-04-14T00:56:02.907Z,13.22
2018-04-14T00:58:31.279Z,13.19
2018-04-14T01:01:01.402Z,13.11
2018-04-14T01:03:29.951Z,13.06
2018-04-14T01:05:59.334Z,13.04
2018-04-14T01:08:27.734Z,13.05
2018-04-14T01:10:57.003Z,13.08
2018-04-14T01:13:26.112Z,13.07
2018-04-14T01:15:54.607Z,13.02
2018-04-14T01:18:23.312Z,12.94
2018-04-14T01:20:52.801Z,12.92
2018-04-14T01:23:21.333Z,12.88
2018-04-14T01:25:49.697Z,12.81
2018-04-14T01:28:18.148Z,12.77
2018-04-14T01:30:46.515Z,12.77
2018-04-14T01:33:16.248Z,12.77
2018-04-14T01:35:45.104Z,12.77
2018-04-14T01:38:14.906Z,12.83
2018-04-14T01:40:44.194Z,12.88
2018-04-14T01:43:12.915Z,12.93
2018-04-14T01:45:42.066Z,12.97
2018-04-14T01:48:10.795Z,13.00
2018-04-14T01:50:40.406Z,13.05
2018-04-14T01:53:09.028Z,13.09
2018-04-14T01:55:38.060Z,13.09
2018-04-14T01:58:07.437Z,13.10
2018-04-14T02:00:35.989Z,13.08
2018-04-14T02:03:04.842Z,13.05
2018-04-14T02:05:34.372Z,13.01
2018-04-14T02:08:03.160Z,12.94
2018-04-14T02:10:32.088Z,12.90
2018-04-14T02:13:00.624Z,12.85
2018-04-14T02:15:29.282Z,12.81
2018-04-14T02:17:58.906Z,12.78
2018-04-14T02:20:28.219Z,12.77
2018-04-14T02:22:57.499Z,12.75
2018-04-14T02:25:26.736Z,12.74
2018-04-14T02:27:55.395Z,12.70
2018-04-14T02:30:25.271Z,12.66
2018-04-14T02:32:54.233Z,12.64
2018-04-14T02:35:23.186Z,12.62
2018-04-14T02:37:51.894Z,12.61
2018-04-14T02:40:20.531Z,12.55
2018-04-14T02:42:48.937Z,12.49
2018-04-14T02:45:18.508Z,12.46
2018-04-14T02:47:47.203Z,12.43
2018-04-14T02:50:17.691Z,12.40
2018-04-14T02:52:47.129Z,12.35
2018-04-14T02:55:15.715Z,12.32
2018-04-14T02:57:44.374Z,12.31
2018-04-14T03:00:12.736Z,12.28
2018-04-14T03:02:42.356Z,12.24
2018-04-14T03:05:11.393Z,12.21
2018-04-14T03:07:40.835Z,12.20
2018-04-14T03:10:09.204Z,12.22
2018-04-14T03:12:38.588Z,12.24
2018-04-14T03:15:07.261Z,12.27
2018-04-14T03:17:36.973Z,12.27
2018-04-14T03:20:05.794Z,12.32
2018-04-14T03:22:34.243Z,12.36
2018-04-14T03:25:03.212Z,12.38
2018-04-14T03:27:31.576Z,12.41
2018-04-14T03:30:00.689Z,12.46
2018-04-14T03:32:29.149Z,12.48
2018-04-14T03:34:57.887Z,12.51
2018-04-14T03:37:26.992Z,12.57
2018-04-14T03:39:55.596Z,12.61
2018-04-14T03:42:23.957Z,12.65
2018-04-14T03:44:52.406Z,12.66
2018-04-14T03:47:20.831Z,12.67
2018-04-14T03:49:49.953Z,12.63
2018-04-14T03:52:18.424Z,12.61
2018-04-14T03:54:47.508Z,12.61
2018-04-14T03:57:16.526Z,12.63
2018-04-14T03:59:45.133Z,12.66
2018-04-14T04:02:13.855Z,12.68
2018-04-14T04:04:42.792Z,12.71
2018-04-14T04:07:11.409Z,12.72
2018-04-14T04:09:40.751Z,12.77
2018-04-14T04:12:09.523Z,12.80
2018-04-14T04:14:37.936Z,12.83
2018-04-14T04:17:07.135Z,12.89
2018-04-14T04:19:48.292Z,12.93
2018-04-14T04:22:29.557Z,12.97
2018-04-14T04:25:10.657Z,12.99
2018-04-14T04:27:39.244Z,13.02
2018-04-14T04:30:08.522Z,13.03
2018-04-14T04:32:38.501Z,13.02
2018-04-14T04:35:07.807Z,13.06
2018-04-14T04:37:36.968Z,13.08
2018-04-14T04:40:05.340Z,13.11
2018-04-14T04:42:33.730Z,13.16
2018-04-14T04:45:02.431Z,13.23
2018-04-14T04:47:30.796Z,13.31
2018-04-14T04:49:59.237Z,13.43
2018-04-14T04:52:28.064Z,13.52
2018-04-14T04:55:00.428Z,13.69
2018-04-14T04:57:29.126Z,13.91
2018-04-14T04:59:57.560Z,14.03
2018-04-14T05:02:27.031Z,14.08
2018-04-14T05:04:55.769Z,14.13
2018-04-14T05:07:24.196Z,14.20
2018-04-14T05:09:52.971Z,14.33
2018-04-14T05:12:21.417Z,14.45
2018-04-14T05:14:49.799Z,14.52
2018-04-14T05:17:18.148Z,14.57
2018-04-14T05:19:46.547Z,14.62
2018-04-14T05:22:16.024Z,14.66
2018-04-14T05:24:44.716Z,14.72
2018-04-14T05:27:13.156Z,14.77
2018-04-14T05:29:42.217Z,14.84
2018-04-14T05:32:10.588Z,14.91
2018-04-14T05:34:40.020Z,15.00
2018-04-14T05:37:08.994Z,15.11
2018-04-14T05:39:37.481Z,15.19
2018-04-14T05:42:06.664Z,15.27
2018-04-14T05:44:36.254Z,15.35
2018-04-14T05:47:04.620Z,15.47
2018-04-14T05:49:33.856Z,15.53
2018-04-14T05:52:02.589Z,15.62
2018-04-14T05:54:31.031Z,15.69
2018-04-14T05:56:59.397Z,15.76
2018-04-14T05:59:28.388Z,15.83
2018-04-14T06:01:56.834Z,15.90
2018-04-14T06:04:26.186Z,15.97
2018-04-14T06:06:55.036Z,16.02
2018-04-14T06:09:23.403Z,16.09
2018-04-14T06:11:51.932Z,16.15
2018-04-14T06:14:21.418Z,16.22
2018-04-14T06:16:50.857Z,16.30
2018-04-14T06:19:19.668Z,16.37
2018-04-14T06:21:48.352Z,16.45
2018-04-14T06:24:17.045Z,16.55
2018-04-14T06:26:45.709Z,16.62
2018-04-14T06:29:14.264Z,16.68
2018-04-14T06:31:43.663Z,16.74
2018-04-14T06:34:12.593Z,16.81
2018-04-14T06:36:41.884Z,16.88
2018-04-14T06:39:10.649Z,16.94
2018-04-14T06:41:39.637Z,17.00
2018-04-14T06:44:08.472Z,17.04
2018-04-14T06:46:36.935Z,17.09
2018-04-14T06:49:06.169Z,17.17
2018-04-14T06:51:34.873Z,17.27
2018-04-14T06:54:03.636Z,17.35
2018-04-14T06:56:32.755Z,17.45
2018-04-14T06:59:01.579Z,17.56
2018-04-14T07:01:30.017Z,17.65
2018-04-14T07:03:58.784Z,17.71
2018-04-14T07:06:27.225Z,17.78
2018-04-14T07:08:55.923Z,17.83
2018-04-14T07:11:24.433Z,17.84
2018-04-14T07:13:52.951Z,17.84
2018-04-14T07:16:21.550Z,17.88
2018-04-14T07:18:50.332Z,17.91
2018-04-14T07:21:18.732Z,17.95
2018-04-14T07:23:47.492Z,17.97
2018-04-14T07:26:18.373Z,17.99
2018-04-14T07:28:47.013Z,17.97
2018-04-14T07:31:16.776Z,17.96
2018-04-14T07:33:45.964Z,18.00
2018-04-14T07:36:14.359Z,18.05
2018-04-14T07:38:42.753Z,18.09
2018-04-14T07:41:12.141Z,18.14
2018-04-14T07:43:41.828Z,18.18
2018-04-14T07:46:10.199Z,18.21
2018-04-14T07:48:38.595Z,18.23
2018-04-14T07:51:07.699Z,18.26
2018-04-14T07:53:36.932Z,18.29
2018-04-14T07:56:05.345Z,18.39
2018-04-14T07:58:33.744Z,18.56
2018-04-14T08:01:02.375Z,18.60
2018-04-14T08:03:30.789Z,18.58
2018-04-14T08:05:59.652Z,18.58
2018-04-14T08:08:28.390Z,18.59
2018-04-14T08:10:56.767Z,18.62
2018-04-14T08:13:25.909Z,18.64
2018-04-14T08:15:54.311Z,18.67
2018-04-14T08:18:23.504Z,18.71
2018-04-14T08:20:51.929Z,18.75
2018-04-14T08:23:20.960Z,18.82
2018-04-14T08:25:49.736Z,18.87
2018-04-14T08:28:18.136Z,18.86
2018-04-14T08:30:46.753Z,18.89
2018-04-14T08:33:15.808Z,18.91
2018-04-14T08:35:44.235Z,18.96
2018-04-14T08:38:13.040Z,19.02
2018-04-14T08:40:41.483Z,19.06
2018-04-14T08:43:09.939Z,19.12
2018-04-14T08:45:38.307Z,19.20
2018-04-14T08:48:06.821Z,19.28
2018-04-14T08:50:35.440Z,19.37
2018-04-14T08:53:04.901Z,19.45
2018-04-14T08:55:33.280Z,19.51
2018-04-14T08:58:01.975Z,19.53
2018-04-14T09:00:30.333Z,19.62
2018-04-14T09:02:59.278Z,19.70
2018-04-14T09:05:27.938Z,19.75
2018-04-14T09:07:56.829Z,19.80
2018-04-14T09:10:26.571Z,19.86
2018-04-14T09:12:56.072Z,19.91
2018-04-14T09:15:25.405Z,19.96
2018-04-14T09:17:56.073Z,20.03
2018-04-14T09:20:24.685Z,20.04
2018-04-14T09:22:53.045Z,20.11
2018-04-14T09:25:22.175Z,20.18
2018-04-14T09:27:51.353Z,20.26
2018-04-14T09:30:19.761Z,20.31
2018-04-14T09:32:49.109Z,20.36
2018-04-14T09:35:17.598Z,20.41
2018-04-14T09:37:46.052Z,20.39
2018-04-14T09:40:14.420Z,20.52
2018-04-14T09:42:42.856Z,20.63
2018-04-14T09:45:11.204Z,20.74
2018-04-14T09:47:39.991Z,20.78
2018-04-14T09:50:08.354Z,20.79
2018-04-14T09:52:37.880Z,20.80
2018-04-14T09:55:06.523Z,20.84
2018-04-14T09:57:35.068Z,20.86
2018-04-14T10:00:03.812Z,20.96
2018-04-14T10:02:37.794Z,21.10
2018-04-14T10:05:06.294Z,21.18
2018-04-14T10:07:34.951Z,21.22
2018-04-14T10:10:03.583Z,21.23
2018-04-14T10:12:32.750Z,21.22
2018-04-14T10:15:01.143Z,21.15
2018-04-14T10:17:30.093Z,21.09
2018-04-14T10:19:58.821Z,21.06
2018-04-14T10:22:27.192Z,21.13
2018-04-14T10:24:56.617Z,21.16
2018-04-14T10:27:25.071Z,21.19
2018-04-14T10:29:53.607Z,21.22
2018-04-14T10:32:22.186Z,21.30
2018-04-14T11:58:25.308Z,22.20
2018-04-14T12:00:54.502Z,22.47
2018-04-14T12:03:25.239Z,22.92
2018-04-14T12:05:53.909Z,22.67
2018-04-14T12:08:22.366Z,22.78
2018-04-14T12:10:50.755Z,22.82
2018-04-14T12:13:20.393Z,22.84
2018-04-14T12:15:48.880Z,22.91
2018-04-14T12:18:18.411Z,22.93
2018-04-14T12:20:46.822Z,23.15
2018-04-14T12:23:15.571Z,22.79
2018-04-14T12:25:43.987Z,22.93
2018-04-14T12:28:12.651Z,23.25
2018-04-14T12:30:41.077Z,23.33
2018-04-14T12:33:09.850Z,23.40
2018-04-14T12:35:38.216Z,23.33
2018-04-14T12:38:06.687Z,23.54
2018-04-14T12:40:35.145Z,23.72
2018-04-14T12:43:03.536Z,24.11
2018-04-14T12:45:31.911Z,23.93
2018-04-14T12:48:00.336Z,23.41
2018-04-14T12:50:31.316Z,23.14
2018-04-14T12:53:00.891Z,23.49
2018-04-14T12:55:31.261Z,22.93
2018-04-14T12:57:59.994Z,22.49
2018-04-14T13:00:30.001Z,22.93
2018-04-14T13:02:58.450Z,22.97
2018-04-14T13:05:29.299Z,22.28
2018-04-14T13:07:57.682Z,21.82
2018-04-14T13:10:26.049Z,22.32
2018-04-14T13:12:55.598Z,22.65
2018-04-14T13:15:24.004Z,22.85
2018-04-14T13:17:52.564Z,23.14
2018-04-14T13:20:21.118Z,23.27
2018-04-14T13:22:52.393Z,23.58
2018-04-14T13:25:21.970Z,23.53
2018-04-14T13:27:50.333Z,23.68
2018-04-14T13:30:19.033Z,23.59
2018-04-14T13:32:47.869Z,23.51
2018-04-14T13:35:17.887Z,23.25
2018-04-14T13:37:46.899Z,23.63
2018-04-14T13:40:16.568Z,23.24
2018-04-14T13:42:45.201Z,22.64
2018-04-14T13:45:14.048Z,22.32
2018-04-14T13:47:42.403Z,22.57
2018-04-14T13:50:11.199Z,23.08
2018-04-14T13:52:40.082Z,23.76
2018-04-14T13:55:09.504Z,23.84
2018-04-14T13:57:38.950Z,23.15
2018-04-14T14:00:08.003Z,23.63
2018-04-14T14:02:37.207Z,23.73
2018-04-14T14:05:05.938Z,23.71
2018-04-14T14:07:34.300Z,23.21
2018-04-14T14:10:03.136Z,22.44
2018-04-14T14:12:31.757Z,21.95
2018-04-14T14:15:00.130Z,21.76
2018-04-14T14:17:28.505Z,21.47
2018-04-14T14:19:56.864Z,20.97
2018-04-14T14:22:25.727Z,20.56
2018-04-14T14:24:54.811Z,20.19
2018-04-14T14:27:23.847Z,19.85
2018-04-14T14:29:53.012Z,19.54
2018-04-14T14:32:21.477Z,19.00
2018-04-14T14:34:52.882Z,18.49
2018-04-14T14:37:21.641Z,18.31
2018-04-14T14:39:50.297Z,18.49
2018-04-14T14:42:19.884Z,18.76
2018-04-14T14:44:48.264Z,19.13
2018-04-14T14:47:17.644Z,20.36
2018-04-14T14:49:46.608Z,21.53
2018-04-14T14:52:16.816Z,22.19
2018-04-14T14:54:45.726Z,22.54
2018-04-14T14:57:14.181Z,22.83
2018-04-14T14:59:42.821Z,23.04
2018-04-14T15:02:11.327Z,23.28
2018-04-14T15:04:39.771Z,23.11
2018-04-14T15:07:08.395Z,22.78
2018-04-14T15:09:37.444Z,22.19
2018-04-14T15:12:06.776Z,21.98
2018-04-14T15:14:35.161Z,21.07
2018-04-14T15:17:03.831Z,21.33
2018-04-14T15:19:33.004Z,22.04
2018-04-14T15:22:01.350Z,22.71
2018-04-14T15:24:30.444Z,23.41
2018-04-14T15:26:58.871Z,23.71
2018-04-14T15:29:27.875Z,23.39
2018-04-14T15:31:57.137Z,23.53
2018-04-14T15:34:25.635Z,23.32
2018-04-14T15:36:54.240Z,22.43
2018-04-14T15:39:22.989Z,21.79
2018-04-14T15:41:52.128Z,21.22
2018-04-14T15:44:20.881Z,20.59
2018-04-14T15:46:49.231Z,20.06
2018-04-14T15:49:18.394Z,19.76
2018-04-14T15:51:47.426Z,19.70
2018-04-14T15:54:15.788Z,19.97
2018-04-14T15:56:44.218Z,20.10
2018-04-14T15:59:13.027Z,19.71
2018-04-14T16:01:42.435Z,19.46
2018-04-14T16:04:10.804Z,19.84
2018-04-14T16:06:39.258Z,20.38
2018-04-14T16:09:09.808Z,20.76
2018-04-14T16:11:38.166Z,20.62
2018-04-14T16:14:06.878Z,20.30
2018-04-14T16:16:36.896Z,19.99
2018-04-14T16:19:05.426Z,19.68
2018-04-14T16:21:34.218Z,19.29
2018-04-14T16:24:02.909Z,18.98
2018-04-14T16:26:31.672Z,18.78
2018-04-14T16:29:00.068Z,18.68
2018-04-14T16:31:28.442Z,18.62
2018-04-14T16:33:57.071Z,18.47
2018-04-14T16:36:25.550Z,18.46
2018-04-14T16:38:55.053Z,18.43
2018-04-14T16:41:23.804Z,18.39
2018-04-14T16:43:53.540Z,18.35
2018-04-14T16:46:24.472Z,18.31
2018-04-14T16:48:53.422Z,18.33
2018-04-14T16:51:22.447Z,18.30
2018-04-14T16:53:51.823Z,18.23
2018-04-14T16:56:20.982Z,18.14
2018-04-14T16:58:49.368Z,18.09
2018-04-14T17:01:21.542Z,18.07
2018-04-14T17:03:50.171Z,18.04
2018-04-14T17:06:19.675Z,18.01
2018-04-14T17:08:48.360Z,17.97
2018-04-14T17:11:16.986Z,17.92
2018-04-14T17:13:46.736Z,17.86
2018-04-14T17:16:16.121Z,17.74
2018-04-14T17:18:44.635Z,17.69
2018-04-14T17:21:13.151Z,17.63
2018-04-14T17:23:41.599Z,17.61
2018-04-14T17:26:10.899Z,17.56
2018-04-14T17:28:40.004Z,17.50
2018-04-14T17:31:08.492Z,17.43
2018-04-14T17:33:37.321Z,17.38
2018-04-14T17:36:05.934Z,17.38
2018-04-14T17:38:34.294Z,17.32
2018-04-14T17:41:03.067Z,17.27
2018-04-14T17:43:32.082Z,17.25
2018-04-14T17:46:00.594Z,17.20
2018-04-14T17:48:29.031Z,17.14
2018-04-14T17:50:57.613Z,17.11
2018-04-14T17:53:25.971Z,17.11
2018-04-14T17:55:54.691Z,17.09
2018-04-14T17:58:23.875Z,17.03
2018-04-14T18:00:52.304Z,17.00
2018-04-14T18:03:20.676Z,16.98
2018-04-14T18:05:49.040Z,16.96
2018-04-14T18:08:17.755Z,16.93
2018-04-14T18:10:46.234Z,16.92
2018-04-14T18:13:14.625Z,16.92
2018-04-14T18:15:43.722Z,16.93
2018-04-14T18:18:12.480Z,16.93
2018-04-14T18:20:40.913Z,16.94
2018-04-14T18:23:09.720Z,16.94
2018-04-14T18:25:38.195Z,16.89
2018-04-14T18:28:06.839Z,16.87
2018-04-14T18:30:36.644Z,16.86
2018-04-14T18:33:05.592Z,16.79
2018-04-14T18:35:34.646Z,16.76
2018-04-14T18:38:04.328Z,16.73
2018-04-14T18:40:33.452Z,16.69
2018-04-14T18:43:02.539Z,16.66
2018-04-14T18:45:31.778Z,16.64
2018-04-14T18:48:03.318Z,16.62
2018-04-14T18:50:33.064Z,16.60
2018-04-14T18:53:02.085Z,16.61
2018-04-14T18:55:31.480Z,16.64
2018-04-14T18:58:00.160Z,16.65
2018-04-14T19:00:29.275Z,16.66
2018-04-14T19:02:59.714Z,16.66
2018-04-14T19:05:29.072Z,16.64
2018-04-14T19:07:57.812Z,16.61
2018-04-14T19:10:26.699Z,16.59
2018-04-14T19:12:55.375Z,16.54
2018-04-14T19:15:24.597Z,16.48
2018-04-14T19:17:53.206Z,16.46
2018-04-14T19:20:22.351Z,16.44
2018-04-14T19:22:51.298Z,16.43
2018-04-14T19:25:20.445Z,16.43
2018-04-14T19:27:49.645Z,16.38
2018-04-14T19:30:18.434Z,16.33
2018-04-14T19:32:47.003Z,16.27
2018-04-14T19:35:15.643Z,16.22
2018-04-14T19:37:44.404Z,16.18
2018-04-14T19:40:12.781Z,16.17
2018-04-14T19:42:41.253Z,16.15
2018-04-14T19:45:09.962Z,16.14
2018-04-14T19:47:39.492Z,16.08
2018-04-14T19:50:08.725Z,16.06
2018-04-14T19:52:37.132Z,16.08
2018-04-14T19:55:05.823Z,16.12
2018-04-14T19:57:34.514Z,16.14
2018-04-14T20:00:02.961Z,16.15
2018-04-14T20:02:31.457Z,16.15
2018-04-14T20:05:00.308Z,16.15
2018-04-14T20:07:29.019Z,16.11
2018-04-14T20:09:57.957Z,16.06
2018-04-14T20:12:26.955Z,15.97
2018-04-14T20:14:55.681Z,15.92
2018-04-14T20:17:24.133Z,15.84
2018-04-14T20:19:53.713Z,15.79
2018-04-14T20:22:22.553Z,15.71
2018-04-14T20:24:51.236Z,15.55
2018-04-14T20:27:20.002Z,15.46
2018-04-14T20:29:49.101Z,15.38
2018-04-14T20:32:17.710Z,15.32
2018-04-14T20:34:46.675Z,15.21
2018-04-14T20:37:15.276Z,15.13
2018-04-14T20:39:45.898Z,15.11
2018-04-14T20:42:15.824Z,15.14
2018-04-14T20:44:46.101Z,15.16
2018-04-14T20:47:15.959Z,15.18
2018-04-14T20:49:44.511Z,15.15
2018-04-14T20:52:13.286Z,15.11
2018-04-14T20:54:44.475Z,15.07
2018-04-14T20:57:15.309Z,14.89
2018-04-14T20:59:44.765Z,14.75
2018-04-14T21:02:13.429Z,14.63
2018-04-14T21:04:43.069Z,14.55
2018-04-14T21:07:12.252Z,14.49
2018-04-14T21:09:41.115Z,14.47
2018-04-14T21:12:09.862Z,14.47
2018-04-14T21:14:39.561Z,14.49
2018-04-14T21:17:09.687Z,14.47
2018-04-14T21:19:39.535Z,14.48
2018-04-14T21:22:08.063Z,14.46
2018-04-14T21:24:36.752Z,14.44
2018-04-14T21:27:06.158Z,14.43
2018-04-14T21:29:34.901Z,14.39
2018-04-14T21:32:03.479Z,14.37
2018-04-14T21:34:34.239Z,14.34
2018-04-14T21:37:03.984Z,14.33
2018-04-14T21:39:33.106Z,14.32
2018-04-14T21:42:01.894Z,14.33
2018-04-14T21:44:31.498Z,14.36
2018-04-14T21:47:01.282Z,14.36
2018-04-14T21:49:30.887Z,14.37
2018-04-14T21:52:02.206Z,14.34
2018-04-14T21:54:30.863Z,14.32
2018-04-14T21:57:00.307Z,14.30
2018-04-14T21:59:29.808Z,14.27
2018-04-14T22:01:58.764Z,14.27
2018-04-14T22:04:27.567Z,14.28
2018-04-14T22:06:56.580Z,14.27
2018-04-14T22:09:27.089Z,14.27
2018-04-14T22:11:59.130Z,14.24
2018-04-14T22:14:38.908Z,14.22
2018-04-14T22:17:07.405Z,14.17
2018-04-14T22:19:37.793Z,14.14
2018-04-14T22:22:06.780Z,14.11
2018-04-14T22:24:36.480Z,14.06
2018-04-14T22:27:05.743Z,14.02
2018-04-14T22:29:34.154Z,13.99
2018-04-14T22:32:03.460Z,13.98
2018-04-14T22:34:32.759Z,13.93
2018-04-14T22:37:01.766Z,13.93
2018-04-14T22:39:30.939Z,13.95
2018-04-14T22:41:59.395Z,13.92
2018-04-14T22:44:27.794Z,13.90
2018-04-14T22:46:56.615Z,13.89
2018-04-14T22:49:25.030Z,13.87
2018-04-14T22:51:53.455Z,13.87
2018-04-14T22:54:22.373Z,13.88
2018-04-14T22:56:51.685Z,13.85
2018-04-14T22:59:20.082Z,13.83
2018-04-14T23:01:48.483Z,13.79
2018-04-14T23:04:16.912Z,13.72
2018-04-14T23:06:45.373Z,13.63
2018-04-14T23:09:14.124Z,13.61
2018-04-14T23:11:43.249Z,13.54
2018-04-14T23:14:14.974Z,13.48
2018-04-14T23:16:43.865Z,13.40
2018-04-14T23:19:12.227Z,13.34
2018-04-14T23:21:40.673Z,13.32
2018-04-14T23:24:10.291Z,13.29
2018-04-14T23:26:39.340Z,13.26
2018-04-14T23:29:08.014Z,13.25
2018-04-14T23:31:36.816Z,13.20
2018-04-14T23:34:05.181Z,13.14
2018-04-14T23:36:34.232Z,13.10
2018-04-14T23:39:02.604Z,13.10
2018-04-14T23:41:30.972Z,13.04
2018-04-14T23:43:59.335Z,12.97
2018-04-14T23:46:27.698Z,12.87
2018-04-14T23:48:57.441Z,12.80
2018-04-14T23:51:25.884Z,12.71
2018-04-14T23:53:54.509Z,12.67
2018-04-14T23:56:23.793Z,12.59
2018-04-14T23:58:52.895Z,12.54
